sensor_id;sensor_type;location;lat;lon;timestamp;pressure;altitude;pressure_sealevel;temperature;humidity
42431;BME280;71905;47.466;19.024;2023-08-06T00:02:00;98912.59;;;19.75;100.00
42431;BME280;71905;47.466;19.024;2023-08-06T00:04:28;98916.41;;;19.72;100.00
42431;BME280;71905;47.466;19.024;2023-08-06T00:06:56;98907.78;;;19.68;100.00
42431;BME280;71905;47.466;19.024;2023-08-06T00:09:24;98914.28;;;19.66;100.00
42431;BME280;71905;47.466;19.024;2023-08-06T00:11:52;98911.59;;;19.66;100.00
42431;BME280;71905;47.466;19.024;2023-08-06T00:14:20;98911.88;;;19.63;100.00
42431;BME280;71905;47.466;19.024;2023-08-06T00:16:48;98914.00;;;19.59;100.00
42431;BME280;71905;47.466;19.024;2023-08-06T00:19:18;98917.94;;;19.55;100.00
42431;BME280;71905;47.466;19.024;2023-08-06T00:21:46;98914.53;;;19.53;100.00
42431;BME280;71905;47.466;19.024;2023-08-06T00:24:13;98917.22;;;19.53;100.00
42431;BME280;71905;47.466;19.024;2023-08-06T00:26:41;98919.88;;;19.53;100.00
42431;BME280;71905;47.466;19.024;2023-08-06T00:29:09;98914.28;;;19.56;100.00
42431;BME280;71905;47.466;19.024;2023-08-06T00:31:37;98915.69;;;19.60;100.00
42431;BME280;71905;47.466;19.024;2023-08-06T00:34:05;98912.72;;;19.63;100.00
42431;BME280;71905;47.466;19.024;2023-08-06T00:36:35;98910.19;;;19.62;100.00
42431;BME280;71905;47.466;19.024;2023-08-06T00:39:03;98904.16;;;19.60;100.00
42431;BME280;71905;47.466;19.024;2023-08-06T00:41:31;98893.28;;;19.61;100.00
42431;BME280;71905;47.466;19.024;2023-08-06T00:43:59;98879.88;;;19.61;100.00
42431;BME280;71905;47.466;19.024;2023-08-06T00:46:27;98874.53;;;19.61;100.00
42431;BME280;71905;47.466;19.024;2023-08-06T00:48:55;98871.16;;;19.59;100.00
42431;BME280;71905;47.466;19.024;2023-08-06T00:51:24;98879.34;;;19.58;100.00
42431;BME280;71905;47.466;19.024;2023-08-06T00:53:54;98889.22;;;19.57;100.00
42431;BME280;71905;47.466;19.024;2023-08-06T00:56:24;98878.63;;;19.56;100.00
42431;BME280;71905;47.466;19.024;2023-08-06T00:58:53;98875.66;;;19.49;100.00
42431;BME280;71905;47.466;19.024;2023-08-06T01:01:22;98859.03;;;19.46;100.00
42431;BME280;71905;47.466;19.024;2023-08-06T01:03:50;98852.09;;;19.43;100.00
42431;BME280;71905;47.466;19.024;2023-08-06T01:06:22;98854.66;;;19.45;100.00
42431;BME280;71905;47.466;19.024;2023-08-06T01:08:58;98856.19;;;19.47;100.00
42431;BME280;71905;47.466;19.024;2023-08-06T01:11:33;98855.06;;;19.50;100.00
42431;BME280;71905;47.466;19.024;2023-08-06T01:14:10;98852.53;;;19.48;100.00
42431;BME280;71905;47.466;19.024;2023-08-06T01:16:41;98844.66;;;19.47;100.00
42431;BME280;71905;47.466;19.024;2023-08-06T01:19:16;98843.09;;;19.44;100.00
42431;BME280;71905;47.466;19.024;2023-08-06T01:21:46;98837.75;;;19.44;100.00
42431;BME280;71905;47.466;19.024;2023-08-06T01:24:15;98831.41;;;19.45;100.00
42431;BME280;71905;47.466;19.024;2023-08-06T01:26:47;98826.59;;;19.39;100.00
42431;BME280;71905;47.466;19.024;2023-08-06T01:29:19;98836.31;;;19.40;100.00
42431;BME280;71905;47.466;19.024;2023-08-06T01:31:51;98842.38;;;19.42;100.00
42431;BME280;71905;47.466;19.024;2023-08-06T01:34:22;98843.66;;;19.38;100.00
42431;BME280;71905;47.466;19.024;2023-08-06T01:36:52;98844.66;;;19.37;100.00
42431;BME280;71905;47.466;19.024;2023-08-06T01:39:21;98840.44;;;19.34;100.00
42431;BME280;71905;47.466;19.024;2023-08-06T01:41:49;98834.22;;;19.34;100.00
42431;BME280;71905;47.466;19.024;2023-08-06T01:44:18;98841.28;;;19.35;100.00
42431;BME280;71905;47.466;19.024;2023-08-06T01:46:46;98836.06;;;19.33;100.00
42431;BME280;71905;47.466;19.024;2023-08-06T01:49:14;98826.34;;;19.23;100.00
42431;BME280;71905;47.466;19.024;2023-08-06T01:51:42;98819.84;;;19.16;100.00
42431;BME280;71905;47.466;19.024;2023-08-06T01:54:11;98807.59;;;19.13;100.00
42431;BME280;71905;47.466;19.024;2023-08-06T01:56:39;98806.91;;;19.11;100.00
42431;BME280;71905;47.466;19.024;2023-08-06T01:59:07;98801.84;;;19.08;100.00
42431;BME280;71905;47.466;19.024;2023-08-06T02:01:35;98799.56;;;19.03;100.00
42431;BME280;71905;47.466;19.024;2023-08-06T02:04:03;98784.81;;;18.99;100.00
42431;BME280;71905;47.466;19.024;2023-08-06T02:06:31;98782.81;;;19.01;100.00
42431;BME280;71905;47.466;19.024;2023-08-06T02:08:59;98781.84;;;19.02;100.00
42431;BME280;71905;47.466;19.024;2023-08-06T02:11:28;98782.97;;;19.00;100.00
42431;BME280;71905;47.466;19.024;2023-08-06T02:13:56;98772.69;;;18.95;100.00
42431;BME280;71905;47.466;19.024;2023-08-06T02:16:24;98772.00;;;18.93;100.00
42431;BME280;71905;47.466;19.024;2023-08-06T02:18:52;98759.88;;;18.89;100.00
42431;BME280;71905;47.466;19.024;2023-08-06T02:21:20;98761.16;;;18.85;100.00
42431;BME280;71905;47.466;19.024;2023-08-06T02:23:48;98760.72;;;18.80;100.00
42431;BME280;71905;47.466;19.024;2023-08-06T02:26:16;98760.31;;;18.75;100.00
42431;BME280;71905;47.466;19.024;2023-08-06T02:28:46;98750.59;;;18.74;100.00
42431;BME280;71905;47.466;19.024;2023-08-06T02:31:14;98741.72;;;18.73;100.00
42431;BME280;71905;47.466;19.024;2023-08-06T02:33:42;98743.56;;;18.73;100.00
42431;BME280;71905;47.466;19.024;2023-08-06T02:36:10;98738.06;;;18.74;100.00
42431;BME280;71905;47.466;19.024;2023-08-06T02:38:38;98739.75;;;18.75;100.00
42431;BME280;71905;47.466;19.024;2023-08-06T02:41:06;98752.97;;;18.77;100.00
42431;BME280;71905;47.466;19.024;2023-08-06T02:43:34;98756.63;;;18.76;100.00
42431;BME280;71905;47.466;19.024;2023-08-06T02:46:03;98758.84;;;18.61;100.00
42431;BME280;71905;47.466;19.024;2023-08-06T02:48:31;98749.28;;;18.59;100.00
42431;BME280;71905;47.466;19.024;2023-08-06T02:50:59;98744.34;;;18.54;100.00
42431;BME280;71905;47.466;19.024;2023-08-06T02:53:29;98736.22;;;18.56;100.00
42431;BME280;71905;47.466;19.024;2023-08-06T02:56:01;98730.72;;;18.57;100.00
42431;BME280;71905;47.466;19.024;2023-08-06T02:58:41;98735.50;;;18.63;100.00
42431;BME280;71905;47.466;19.024;2023-08-06T03:01:21;98740.13;;;18.61;100.00
42431;BME280;71905;47.466;19.024;2023-08-06T03:03:56;98734.22;;;18.58;100.00
42431;BME280;71905;47.466;19.024;2023-08-06T03:06:30;98731.56;;;18.58;100.00
42431;BME280;71905;47.466;19.024;2023-08-06T03:09:00;98736.75;;;18.59;100.00
42431;BME280;71905;47.466;19.024;2023-08-06T03:11:28;98740.56;;;18.57;100.00
42431;BME280;71905;47.466;19.024;2023-08-06T03:14:01;98737.16;;;18.54;100.00
42431;BME280;71905;47.466;19.024;2023-08-06T03:16:31;98732.94;;;18.52;100.00
42431;BME280;71905;47.466;19.024;2023-08-06T03:19:00;98730.84;;;18.46;100.00
42431;BME280;71905;47.466;19.024;2023-08-06T03:21:28;98732.09;;;18.42;100.00
42431;BME280;71905;47.466;19.024;2023-08-06T03:23:57;98729.16;;;18.45;100.00
42431;BME280;71905;47.466;19.024;2023-08-06T03:26:28;98727.47;;;18.44;100.00
42431;BME280;71905;47.466;19.024;2023-08-06T03:28:56;98734.75;;;18.42;100.00
42431;BME280;71905;47.466;19.024;2023-08-06T03:31:25;98733.22;;;18.39;100.00
42431;BME280;71905;47.466;19.024;2023-08-06T03:33:55;98724.34;;;18.39;100.00
42431;BME280;71905;47.466;19.024;2023-08-06T03:36:26;98732.50;;;18.37;100.00
42431;BME280;71905;47.466;19.024;2023-08-06T03:38:54;98728.84;;;18.38;100.00
42431;BME280;71905;47.466;19.024;2023-08-06T03:41:22;98733.63;;;18.35;100.00
42431;BME280;71905;47.466;19.024;2023-08-06T03:43:50;98734.75;;;18.32;100.00
42431;BME280;71905;47.466;19.024;2023-08-06T03:46:24;98729.41;;;18.32;100.00
42431;BME280;71905;47.466;19.024;2023-08-06T03:48:53;98744.16;;;18.27;100.00
42431;BME280;71905;47.466;19.024;2023-08-06T03:51:22;98744.72;;;18.20;100.00
42431;BME280;71905;47.466;19.024;2023-08-06T03:53:51;98739.09;;;18.23;100.00
42431;BME280;71905;47.466;19.024;2023-08-06T03:56:19;98740.09;;;18.22;100.00
42431;BME280;71905;47.466;19.024;2023-08-06T03:58:48;98741.50;;;18.17;100.00
42431;BME280;71905;47.466;19.024;2023-08-06T04:01:17;98733.34;;;18.18;100.00
42431;BME280;71905;47.466;19.024;2023-08-06T04:03:47;98731.91;;;18.14;100.00
42431;BME280;71905;47.466;19.024;2023-08-06T04:06:15;98733.88;;;18.12;100.00
42431;BME280;71905;47.466;19.024;2023-08-06T04:08:44;98721.91;;;18.07;100.00
42431;BME280;71905;47.466;19.024;2023-08-06T04:11:12;98727.69;;;18.12;100.00
42431;BME280;71905;47.466;19.024;2023-08-06T04:13:42;98727.25;;;18.07;100.00
42431;BME280;71905;47.466;19.024;2023-08-06T04:16:10;98715.44;;;18.09;100.00
42431;BME280;71905;47.466;19.024;2023-08-06T04:18:41;98712.78;;;18.09;100.00
42431;BME280;71905;47.466;19.024;2023-08-06T04:21:09;98717.13;;;18.10;100.00
42431;BME280;71905;47.466;19.024;2023-08-06T04:23:36;98709.69;;;18.14;100.00
42431;BME280;71905;47.466;19.024;2023-08-06T04:26:08;98711.94;;;18.09;100.00
42431;BME280;71905;47.466;19.024;2023-08-06T04:28:37;98717.00;;;18.12;100.00
42431;BME280;71905;47.466;19.024;2023-08-06T04:31:05;98708.56;;;18.07;100.00
42431;BME280;71905;47.466;19.024;2023-08-06T04:33:33;98717.56;;;18.06;100.00
42431;BME280;71905;47.466;19.024;2023-08-06T04:36:06;98709.09;;;18.01;100.00
42431;BME280;71905;47.466;19.024;2023-08-06T04:38:34;98709.50;;;17.96;100.00
42431;BME280;71905;47.466;19.024;2023-08-06T04:41:02;98707.13;;;17.93;100.00
42431;BME280;71905;47.466;19.024;2023-08-06T04:43:32;98708.06;;;17.82;100.00
42431;BME280;71905;47.466;19.024;2023-08-06T04:46:00;98704.69;;;17.80;100.00
42431;BME280;71905;47.466;19.024;2023-08-06T04:48:28;98703.13;;;17.78;100.00
42431;BME280;71905;47.466;19.024;2023-08-06T04:50:56;98698.19;;;17.73;100.00
42431;BME280;71905;47.466;19.024;2023-08-06T04:53:24;98698.91;;;17.75;100.00
42431;BME280;71905;47.466;19.024;2023-08-06T04:55:52;98691.31;;;17.71;100.00
42431;BME280;71905;47.466;19.024;2023-08-06T04:58:21;98691.69;;;17.66;100.00
42431;BME280;71905;47.466;19.024;2023-08-06T05:00:52;98689.00;;;17.66;100.00
42431;BME280;71905;47.466;19.024;2023-08-06T05:03:20;98690.47;;;17.70;100.00
42431;BME280;71905;47.466;19.024;2023-08-06T05:05:48;98688.13;;;17.65;100.00
42431;BME280;71905;47.466;19.024;2023-08-06T05:08:16;98690.38;;;17.60;100.00
42431;BME280;71905;47.466;19.024;2023-08-06T05:10:45;98677.75;;;17.62;100.00
42431;BME280;71905;47.466;19.024;2023-08-06T05:13:13;98677.88;;;17.61;100.00
42431;BME280;71905;47.466;19.024;2023-08-06T05:15:41;98674.50;;;17.59;100.00
42431;BME280;71905;47.466;19.024;2023-08-06T05:18:13;98672.53;;;17.61;100.00
42431;BME280;71905;47.466;19.024;2023-08-06T05:20:42;98680.41;;;17.62;100.00
42431;BME280;71905;47.466;19.024;2023-08-06T05:23:10;98682.50;;;17.59;100.00
42431;BME280;71905;47.466;19.024;2023-08-06T05:25:38;98689.41;;;17.61;100.00
42431;BME280;71905;47.466;19.024;2023-08-06T05:28:06;98685.19;;;17.59;100.00
42431;BME280;71905;47.466;19.024;2023-08-06T05:30:39;98680.13;;;17.56;100.00
42431;BME280;71905;47.466;19.024;2023-08-06T05:33:07;98675.91;;;17.53;100.00
42431;BME280;71905;47.466;19.024;2023-08-06T05:35:36;98676.84;;;17.43;100.00
42431;BME280;71905;47.466;19.024;2023-08-06T05:38:04;98672.63;;;17.50;100.00
42431;BME280;71905;47.466;19.024;2023-08-06T05:40:33;98664.63;;;17.50;100.00
42431;BME280;71905;47.466;19.024;2023-08-06T05:43:01;98661.53;;;17.45;100.00
42431;BME280;71905;47.466;19.024;2023-08-06T05:45:29;98652.41;;;17.47;100.00
42431;BME280;71905;47.466;19.024;2023-08-06T05:47:57;98654.78;;;17.50;100.00
42431;BME280;71905;47.466;19.024;2023-08-06T05:50:26;98649.59;;;17.49;100.00
42431;BME280;71905;47.466;19.024;2023-08-06T05:52:55;98651.41;;;17.48;100.00
42431;BME280;71905;47.466;19.024;2023-08-06T05:55:27;98645.78;;;17.42;100.00
42431;BME280;71905;47.466;19.024;2023-08-06T05:57:55;98640.88;;;17.47;100.00
42431;BME280;71905;47.466;19.024;2023-08-06T06:00:23;98648.59;;;17.50;100.00
42431;BME280;71905;47.466;19.024;2023-08-06T06:02:51;98635.22;;;17.40;100.00
42431;BME280;71905;47.466;19.024;2023-08-06T06:05:19;98630.75;;;17.41;100.00
42431;BME280;71905;47.466;19.024;2023-08-06T06:07:47;98633.00;;;17.45;100.00
42431;BME280;71905;47.466;19.024;2023-08-06T06:10:17;98627.34;;;17.39;100.00
42431;BME280;71905;47.466;19.024;2023-08-06T06:12:45;98630.16;;;17.37;100.00
42431;BME280;71905;47.466;19.024;2023-08-06T06:15:13;98629.78;;;17.42;100.00
42431;BME280;71905;47.466;19.024;2023-08-06T06:17:41;98637.03;;;17.40;100.00
42431;BME280;71905;47.466;19.024;2023-08-06T06:20:09;98632.56;;;17.40;100.00
42431;BME280;71905;47.466;19.024;2023-08-06T06:22:37;98637.88;;;17.40;100.00
42431;BME280;71905;47.466;19.024;2023-08-06T06:25:06;98646.03;;;17.39;100.00
42431;BME280;71905;47.466;19.024;2023-08-06T06:27:36;98645.50;;;17.45;100.00
42431;BME280;71905;47.466;19.024;2023-08-06T06:30:05;98656.00;;;17.36;100.00
42431;BME280;71905;47.466;19.024;2023-08-06T06:32:33;98665.00;;;17.35;100.00
42431;BME280;71905;47.466;19.024;2023-08-06T06:35:01;98673.94;;;17.25;100.00
42431;BME280;71905;47.466;19.024;2023-08-06T06:37:31;98670.59;;;17.32;100.00
42431;BME280;71905;47.466;19.024;2023-08-06T06:39:59;98679.25;;;17.25;100.00
42431;BME280;71905;47.466;19.024;2023-08-06T06:42:27;98679.88;;;17.28;100.00
42431;BME280;71905;47.466;19.024;2023-08-06T06:45:01;98679.72;;;17.30;100.00
42431;BME280;71905;47.466;19.024;2023-08-06T06:47:29;98669.28;;;17.27;100.00
42431;BME280;71905;47.466;19.024;2023-08-06T06:49:57;98672.69;;;17.29;100.00
42431;BME280;71905;47.466;19.024;2023-08-06T06:52:25;98667.78;;;17.34;100.00
42431;BME280;71905;47.466;19.024;2023-08-06T06:54:53;98656.72;;;17.39;100.00
42431;BME280;71905;47.466;19.024;2023-08-06T06:57:21;98652.69;;;17.44;100.00
42431;BME280;71905;47.466;19.024;2023-08-06T06:59:49;98662.66;;;17.52;100.00
42431;BME280;71905;47.466;19.024;2023-08-06T07:02:18;98656.09;;;17.56;100.00
42431;BME280;71905;47.466;19.024;2023-08-06T07:04:47;98662.69;;;17.61;100.00
42431;BME280;71905;47.466;19.024;2023-08-06T07:07:15;98663.69;;;17.60;100.00
42431;BME280;71905;47.466;19.024;2023-08-06T07:09:43;98672.25;;;17.64;100.00
42431;BME280;71905;47.466;19.024;2023-08-06T07:12:11;98675.66;;;17.66;100.00
42431;BME280;71905;47.466;19.024;2023-08-06T07:14:39;98675.06;;;17.62;100.00
42431;BME280;71905;47.466;19.024;2023-08-06T07:17:07;98685.47;;;17.56;100.00
42431;BME280;71905;47.466;19.024;2023-08-06T07:19:36;98689.69;;;17.58;100.00
42431;BME280;71905;47.466;19.024;2023-08-06T07:22:04;98702.59;;;17.53;100.00
42431;BME280;71905;47.466;19.024;2023-08-06T07:24:32;98705.13;;;17.55;100.00
42431;BME280;71905;47.466;19.024;2023-08-06T07:27:00;98703.31;;;17.55;100.00
42431;BME280;71905;47.466;19.024;2023-08-06T07:29:29;98694.69;;;17.52;100.00
42431;BME280;71905;47.466;19.024;2023-08-06T07:31:56;98690.09;;;17.54;100.00
42431;BME280;71905;47.466;19.024;2023-08-06T07:34:24;98694.44;;;17.55;100.00
42431;BME280;71905;47.466;19.024;2023-08-06T07:36:54;98692.63;;;17.55;100.00
42431;BME280;71905;47.466;19.024;2023-08-06T07:39:22;98687.28;;;17.55;100.00
42431;BME280;71905;47.466;19.024;2023-08-06T07:41:50;98689.97;;;17.55;100.00
42431;BME280;71905;47.466;19.024;2023-08-06T07:44:19;98697.25;;;17.53;100.00
42431;BME280;71905;47.466;19.024;2023-08-06T07:46:47;98689.81;;;17.57;100.00
42431;BME280;71905;47.466;19.024;2023-08-06T07:49:15;98684.00;;;17.52;100.00
42431;BME280;71905;47.466;19.024;2023-08-06T07:51:43;98685.59;;;17.54;100.00
42431;BME280;71905;47.466;19.024;2023-08-06T07:54:12;98686.03;;;17.59;100.00
42431;BME280;71905;47.466;19.024;2023-08-06T07:56:40;98678.28;;;17.56;100.00
42431;BME280;71905;47.466;19.024;2023-08-06T07:59:08;98673.09;;;17.55;100.00
42431;BME280;71905;47.466;19.024;2023-08-06T08:01:36;98667.75;;;17.55;100.00
42431;BME280;71905;47.466;19.024;2023-08-06T08:04:04;98672.78;;;17.48;100.00
42431;BME280;71905;47.466;19.024;2023-08-06T08:06:33;98679.78;;;17.49;100.00
42431;BME280;71905;47.466;19.024;2023-08-06T08:09:01;98678.25;;;17.47;100.00
42431;BME280;71905;47.466;19.024;2023-08-06T08:11:31;98691.03;;;17.43;100.00
42431;BME280;71905;47.466;19.024;2023-08-06T08:13:59;98684.28;;;17.49;100.00
42431;BME280;71905;47.466;19.024;2023-08-06T08:16:27;98683.03;;;17.53;100.00
42431;BME280;71905;47.466;19.024;2023-08-06T08:18:55;98686.81;;;17.50;100.00
42431;BME280;71905;47.466;19.024;2023-08-06T08:21:23;98698.94;;;17.54;100.00
42431;BME280;71905;47.466;19.024;2023-08-06T08:23:52;98691.38;;;17.59;100.00
42431;BME280;71905;47.466;19.024;2023-08-06T08:26:20;98696.53;;;17.51;100.00
42431;BME280;71905;47.466;19.024;2023-08-06T08:28:49;98706.94;;;17.54;100.00
42431;BME280;71905;47.466;19.024;2023-08-06T08:31:17;98701.72;;;17.53;100.00
42431;BME280;71905;47.466;19.024;2023-08-06T08:33:45;98709.28;;;17.48;100.00
42431;BME280;71905;47.466;19.024;2023-08-06T08:36:13;98690.63;;;17.48;100.00
42431;BME280;71905;47.466;19.024;2023-08-06T08:38:42;98694.97;;;17.49;100.00
42431;BME280;71905;47.466;19.024;2023-08-06T08:41:10;98697.38;;;17.52;100.00
42431;BME280;71905;47.466;19.024;2023-08-06T08:43:40;98699.66;;;17.56;100.00
42431;BME280;71905;47.466;19.024;2023-08-06T08:46:11;98699.78;;;17.55;100.00
42431;BME280;71905;47.466;19.024;2023-08-06T08:48:40;98700.22;;;17.60;100.00
42431;BME280;71905;47.466;19.024;2023-08-06T08:51:08;98699.09;;;17.62;100.00
42431;BME280;71905;47.466;19.024;2023-08-06T08:53:37;98700.91;;;17.62;100.00
42431;BME280;71905;47.466;19.024;2023-08-06T08:56:06;98704.56;;;17.61;100.00
42431;BME280;71905;47.466;19.024;2023-08-06T08:58:34;98701.63;;;17.64;100.00
42431;BME280;71905;47.466;19.024;2023-08-06T09:01:02;98689.84;;;17.67;100.00
42431;BME280;71905;47.466;19.024;2023-08-06T09:03:32;98687.44;;;17.63;100.00
42431;BME280;71905;47.466;19.024;2023-08-06T09:06:02;98687.44;;;17.63;100.00
42431;BME280;71905;47.466;19.024;2023-08-06T09:08:34;98689.97;;;17.65;100.00
42431;BME280;71905;47.466;19.024;2023-08-06T09:11:04;98696.88;;;17.68;100.00
42431;BME280;71905;47.466;19.024;2023-08-06T09:13:32;98694.44;;;17.55;100.00
42431;BME280;71905;47.466;19.024;2023-08-06T09:16:00;98708.94;;;17.62;100.00
42431;BME280;71905;47.466;19.024;2023-08-06T09:18:29;98704.16;;;17.56;100.00
42431;BME280;71905;47.466;19.024;2023-08-06T09:20:59;98708.03;;;17.52;100.00
42431;BME280;71905;47.466;19.024;2023-08-06T09:23:28;98707.06;;;17.53;100.00
42431;BME280;71905;47.466;19.024;2023-08-06T09:25:58;98716.91;;;17.52;100.00
42431;BME280;71905;47.466;19.024;2023-08-06T09:28:36;98724.47;;;17.47;100.00
42431;BME280;71905;47.466;19.024;2023-08-06T09:31:04;98724.34;;;17.49;100.00
42431;BME280;71905;47.466;19.024;2023-08-06T09:33:32;98730.50;;;17.49;100.00
42431;BME280;71905;47.466;19.024;2023-08-06T09:36:08;98734.31;;;17.47;100.00
42431;BME280;71905;47.466;19.024;2023-08-06T09:38:38;98720.53;;;17.42;100.00
42431;BME280;71905;47.466;19.024;2023-08-06T09:41:06;98725.59;;;17.45;100.00
42431;BME280;71905;47.466;19.024;2023-08-06T09:43:41;98713.66;;;17.49;100.00
42431;BME280;71905;47.466;19.024;2023-08-06T09:46:13;98707.53;;;17.58;100.00
42431;BME280;71905;47.466;19.024;2023-08-06T09:48:46;98709.06;;;17.60;100.00
42431;BME280;71905;47.466;19.024;2023-08-06T09:51:16;98709.63;;;17.64;100.00
42431;BME280;71905;47.466;19.024;2023-08-06T09:53:45;98708.88;;;17.73;100.00
42431;BME280;71905;47.466;19.024;2023-08-06T09:56:15;98719.28;;;17.76;100.00
42431;BME280;71905;47.466;19.024;2023-08-06T09:58:47;98732.25;;;17.81;100.00
42431;BME280;71905;47.466;19.024;2023-08-06T10:01:16;98732.09;;;17.82;100.00
42431;BME280;71905;47.466;19.024;2023-08-06T10:03:47;98731.97;;;17.84;100.00
42431;BME280;71905;47.466;19.024;2023-08-06T10:06:17;98732.63;;;17.76;100.00
42431;BME280;71905;47.466;19.024;2023-08-06T10:08:45;98740.81;;;17.84;100.00
42431;BME280;71905;47.466;19.024;2023-08-06T10:11:15;98738.28;;;17.83;99.94
42431;BME280;71905;47.466;19.024;2023-08-06T10:13:44;98750.94;;;17.81;100.00
42431;BME280;71905;47.466;19.024;2023-08-06T10:16:12;98751.91;;;17.80;100.00
42431;BME280;71905;47.466;19.024;2023-08-06T10:18:42;98756.84;;;17.84;99.93
42431;BME280;71905;47.466;19.024;2023-08-06T10:21:10;98760.94;;;17.88;100.00
42431;BME280;71905;47.466;19.024;2023-08-06T10:23:41;98755.59;;;17.88;99.36
42431;BME280;71905;47.466;19.024;2023-08-06T10:26:09;98762.63;;;17.89;99.14
42431;BME280;71905;47.466;19.024;2023-08-06T10:28:38;98760.94;;;17.88;98.66
42431;BME280;71905;47.466;19.024;2023-08-06T10:31:06;98758.00;;;17.91;97.67
42431;BME280;71905;47.466;19.024;2023-08-06T10:33:41;98762.38;;;17.92;97.37
42431;BME280;71905;47.466;19.024;2023-08-06T10:36:11;98771.78;;;17.97;97.27
42431;BME280;71905;47.466;19.024;2023-08-06T10:38:48;98769.81;;;17.99;97.76
42431;BME280;71905;47.466;19.024;2023-08-06T10:41:21;98776.16;;;17.98;98.59
42431;BME280;71905;47.466;19.024;2023-08-06T10:43:50;98782.91;;;18.02;97.25
42431;BME280;71905;47.466;19.024;2023-08-06T10:46:23;98783.06;;;18.00;97.95
42431;BME280;71905;47.466;19.024;2023-08-06T10:48:51;98783.88;;;18.01;98.29
42431;BME280;71905;47.466;19.024;2023-08-06T10:51:19;98774.91;;;18.02;97.56
42431;BME280;71905;47.466;19.024;2023-08-06T10:53:49;98774.38;;;18.08;95.08
42431;BME280;71905;47.466;19.024;2023-08-06T10:56:19;98778.88;;;18.07;94.44
42431;BME280;71905;47.466;19.024;2023-08-06T10:58:50;98765.38;;;18.09;95.85
42431;BME280;71905;47.466;19.024;2023-08-06T11:01:18;98766.94;;;18.21;93.37
42431;BME280;71905;47.466;19.024;2023-08-06T11:03:47;98775.09;;;18.19;93.46
42431;BME280;71905;47.466;19.024;2023-08-06T11:06:17;98781.59;;;18.27;93.87
42431;BME280;71905;47.466;19.024;2023-08-06T11:08:52;98778.91;;;18.27;93.67
42431;BME280;71905;47.466;19.024;2023-08-06T11:11:22;98788.78;;;18.36;92.92
42431;BME280;71905;47.466;19.024;2023-08-06T11:13:51;98789.06;;;18.33;91.78
42431;BME280;71905;47.466;19.024;2023-08-06T11:16:21;98779.22;;;18.33;91.38
42431;BME280;71905;47.466;19.024;2023-08-06T11:18:51;98778.06;;;18.26;91.23
42431;BME280;71905;47.466;19.024;2023-08-06T11:21:21;98781.19;;;18.31;91.09
42431;BME280;71905;47.466;19.024;2023-08-06T11:23:53;98769.75;;;18.29;90.34
42431;BME280;71905;47.466;19.024;2023-08-06T11:26:22;98779.06;;;18.25;91.62
42431;BME280;71905;47.466;19.024;2023-08-06T11:28:50;98775.81;;;18.21;93.84
42431;BME280;71905;47.466;19.024;2023-08-06T11:31:19;98781.13;;;18.12;94.82
42431;BME280;71905;47.466;19.024;2023-08-06T11:33:48;98777.03;;;18.08;97.13
42431;BME280;71905;47.466;19.024;2023-08-06T11:36:28;98783.38;;;18.07;97.72
42431;BME280;71905;47.466;19.024;2023-08-06T11:38:58;98788.84;;;18.05;97.87
42431;BME280;71905;47.466;19.024;2023-08-06T11:41:27;98789.69;;;18.06;98.60
42431;BME280;71905;47.466;19.024;2023-08-06T11:43:56;98775.44;;;17.96;99.09
42431;BME280;71905;47.466;19.024;2023-08-06T11:46:24;98790.91;;;18.02;98.36
42431;BME280;71905;47.466;19.024;2023-08-06T11:48:53;98782.53;;;18.06;98.29
42431;BME280;71905;47.466;19.024;2023-08-06T11:51:22;98778.59;;;18.10;97.13
42431;BME280;71905;47.466;19.024;2023-08-06T11:53:51;98782.28;;;18.19;97.18
42431;BME280;71905;47.466;19.024;2023-08-06T11:56:20;98785.78;;;18.29;96.28
42431;BME280;71905;47.466;19.024;2023-08-06T11:58:48;98790.50;;;18.46;95.09
42431;BME280;71905;47.466;19.024;2023-08-06T12:01:18;98803.75;;;18.58;92.22
42431;BME280;71905;47.466;19.024;2023-08-06T12:03:46;98793.38;;;18.64;90.82
42431;BME280;71905;47.466;19.024;2023-08-06T12:06:14;98807.91;;;18.81;91.17
42431;BME280;71905;47.466;19.024;2023-08-06T12:08:42;98804.22;;;18.92;90.29
42431;BME280;71905;47.466;19.024;2023-08-06T12:11:11;98798.47;;;19.06;90.45
42431;BME280;71905;47.466;19.024;2023-08-06T12:13:40;98802.94;;;19.15;88.87
42431;BME280;71905;47.466;19.024;2023-08-06T12:16:10;98806.63;;;19.14;87.55
42431;BME280;71905;47.466;19.024;2023-08-06T12:18:40;98811.69;;;19.27;86.66
42431;BME280;71905;47.466;19.024;2023-08-06T12:21:08;98822.69;;;19.14;86.56
42431;BME280;71905;47.466;19.024;2023-08-06T12:23:36;98826.50;;;19.11;87.13
42431;BME280;71905;47.466;19.024;2023-08-06T12:26:04;98829.00;;;19.03;87.00
42431;BME280;71905;47.466;19.024;2023-08-06T12:28:32;98827.91;;;18.96;88.75
42431;BME280;71905;47.466;19.024;2023-08-06T12:31:01;98832.09;;;18.89;88.85
42431;BME280;71905;47.466;19.024;2023-08-06T12:33:29;98830.56;;;18.87;89.32
42431;BME280;71905;47.466;19.024;2023-08-06T12:35:58;98832.81;;;18.91;89.29
42431;BME280;71905;47.466;19.024;2023-08-06T12:38:26;98834.09;;;18.97;90.20
42431;BME280;71905;47.466;19.024;2023-08-06T12:40:54;98833.94;;;18.98;88.59
42431;BME280;71905;47.466;19.024;2023-08-06T12:43:22;98835.06;;;19.05;88.51
42431;BME280;71905;47.466;19.024;2023-08-06T12:45:50;98832.41;;;19.15;88.51
42431;BME280;71905;47.466;19.024;2023-08-06T12:48:19;98833.78;;;19.29;88.32
42431;BME280;71905;47.466;19.024;2023-08-06T12:50:47;98839.84;;;19.31;85.80
42431;BME280;71905;47.466;19.024;2023-08-06T12:53:16;98833.09;;;19.27;85.83